createdAt,value
2018-03-21T00:00:16.134Z,-3.30
2018-03-21T00:02:44.110Z,-3.30
2018-03-21T00:05:12.460Z,-3.30
2018-03-21T00:07:40.003Z,-3.30
2018-03-21T00:10:07.619Z,-3.30
2018-03-21T00:12:36.002Z,-3.20
2018-03-21T00:15:04.358Z,-3.00
2018-03-21T00:17:32.069Z,-3.10
2018-03-21T00:19:59.639Z,-3.10
2018-03-21T00:22:27.388Z,-3.20
2018-03-21T00:24:55.243Z,-3.30
2018-03-21T00:27:23.565Z,-3.10
2018-03-21T00:29:51.182Z,-3.20
2018-03-21T00:32:19.937Z,-3.10
2018-03-21T00:34:47.510Z,-3.10
2018-03-21T00:37:15.830Z,-3.00
2018-03-21T00:39:43.441Z,-3.00
2018-03-21T00:42:11.024Z,-2.70
2018-03-21T00:44:38.610Z,-2.40
2018-03-21T00:47:06.214Z,-2.10
2018-03-21T00:49:33.778Z,-1.90
2018-03-21T00:52:02.120Z,-1.30
2018-03-21T00:54:29.738Z,-1.40
2018-03-21T00:56:58.089Z,-0.90
2018-03-21T00:59:25.672Z,-0.90
2018-03-21T01:01:54.045Z,-0.60
2018-03-21T01:04:22.396Z,-0.50
2018-03-21T01:06:50.020Z,-0.50
2018-03-21T01:09:17.584Z,-0.30
2018-03-21T01:11:45.203Z,-0.20
2018-03-21T01:14:13.802Z,-0.10
2018-03-21T01:16:41.367Z,-0.10
2018-03-21T01:19:08.979Z,0.00
2018-03-21T01:21:36.613Z,0.00
2018-03-21T01:24:04.187Z,0.10
2018-03-21T01:26:31.771Z,0.20
2018-03-21T01:29:00.132Z,0.20
2018-03-21T01:31:27.705Z,0.10
2018-03-21T01:33:56.079Z,0.10
2018-03-21T01:36:24.406Z,0.20
2018-03-21T01:38:51.977Z,0.10
2018-03-21T01:41:19.596Z,0.10
2018-03-21T01:43:47.137Z,0.10
2018-03-21T01:46:15.492Z,0.30
2018-03-21T01:48:43.084Z,0.20
2018-03-21T01:51:11.455Z,0.40
2018-03-21T01:53:39.834Z,0.50
2018-03-21T01:56:08.194Z,0.50
2018-03-21T01:58:35.756Z,0.40
2018-03-21T02:01:03.316Z,0.60
2018-03-21T02:03:30.914Z,0.50
2018-03-21T02:05:58.517Z,0.60
2018-03-21T02:08:26.088Z,0.60
2018-03-21T02:10:54.042Z,0.60
2018-03-21T02:13:22.060Z,0.60
2018-03-21T02:15:49.791Z,0.50
2018-03-21T02:18:17.392Z,0.50
2018-03-21T02:20:44.955Z,0.60
2018-03-21T02:23:12.566Z,0.70
2018-03-21T02:25:40.940Z,0.50
2018-03-21T02:28:10.074Z,0.40
2018-03-21T02:30:37.682Z,0.40
2018-03-21T02:33:05.269Z,0.40
2018-03-21T02:35:33.613Z,0.40
2018-03-21T02:38:01.489Z,0.40
2018-03-21T02:40:30.562Z,0.40
2018-03-21T02:42:58.153Z,0.40
2018-03-21T02:45:25.758Z,0.50
2018-03-21T02:47:53.370Z,0.50
2018-03-21T02:50:20.964Z,0.50
2018-03-21T02:52:48.585Z,0.50
2018-03-21T02:55:16.954Z,0.70
2018-03-21T02:57:44.527Z,0.60
2018-03-21T03:00:12.497Z,0.70
2018-03-21T03:02:40.071Z,0.60
2018-03-21T03:05:08.404Z,0.50
2018-03-21T03:07:36.299Z,0.50
2018-03-21T03:10:03.956Z,0.50
2018-03-21T03:12:32.309Z,0.50
2018-03-21T03:14:59.890Z,0.40
2018-03-21T03:17:27.510Z,0.40
2018-03-21T03:19:55.113Z,0.30
2018-03-21T03:22:22.679Z,0.10
2018-03-21T03:24:50.275Z,0.00
2018-03-21T03:27:18.186Z,0.00
2018-03-21T03:29:46.540Z,0.10
2018-03-21T03:32:14.110Z,0.00
2018-03-21T03:34:41.729Z,0.00
2018-03-21T03:37:09.312Z,-0.10
2018-03-21T03:39:36.881Z,-0.20
2018-03-21T03:42:04.500Z,-0.20
2018-03-21T03:44:32.849Z,-0.10
2018-03-21T03:47:00.421Z,-0.20
2018-03-21T03:49:28.806Z,-0.30
2018-03-21T03:51:57.136Z,-0.30
2018-03-21T03:54:28.525Z,-0.40
2018-03-21T03:56:56.877Z,-0.30
2018-03-21T03:59:24.439Z,-0.40
2018-03-21T04:01:53.543Z,-0.40
2018-03-21T04:04:21.129Z,-0.40
2018-03-21T04:06:49.470Z,-0.30
2018-03-21T04:09:17.444Z,-0.30
2018-03-21T04:11:45.011Z,-0.30
2018-03-21T04:14:12.582Z,-0.20
2018-03-21T04:16:40.978Z,-0.50
2018-03-21T04:19:08.540Z,-0.60
2018-03-21T04:21:36.266Z,-0.70
2018-03-21T04:24:03.851Z,-0.80
2018-03-21T04:26:32.287Z,-0.90
2018-03-21T04:28:59.950Z,-0.90
2018-03-21T04:31:27.814Z,-0.90
2018-03-21T04:33:55.551Z,-0.90
2018-03-21T04:36:23.120Z,-0.90
2018-03-21T04:38:50.792Z,-1.00
2018-03-21T04:41:18.383Z,-1.00
2018-03-21T04:43:46.722Z,-0.90
2018-03-21T04:46:14.597Z,-0.90
2018-03-21T04:48:42.168Z,-0.90
2018-03-21T04:51:09.743Z,-0.80
2018-03-21T04:53:38.136Z,-0.50
2018-03-21T04:56:05.715Z,-0.60
2018-03-21T04:58:33.296Z,-0.50
2018-03-21T05:01:00.929Z,-0.60
2018-03-21T05:03:28.532Z,-0.60
2018-03-21T05:05:56.109Z,-0.70
2018-03-21T05:08:23.880Z,-0.60
2018-03-21T05:10:51.471Z,-0.60
2018-03-21T05:13:19.079Z,-0.60
2018-03-21T05:15:46.653Z,-0.70
2018-03-21T05:18:14.326Z,-0.70
2018-03-21T05:20:42.654Z,-0.70
2018-03-21T05:23:10.245Z,-0.70
2018-03-21T05:25:39.933Z,-0.50
2018-03-21T05:28:07.515Z,-0.60
2018-03-21T05:30:35.192Z,-0.50
2018-03-21T05:33:03.564Z,-0.60
2018-03-21T05:35:32.133Z,-0.60
2018-03-21T05:37:59.706Z,-0.60
2018-03-21T05:40:28.326Z,-0.60
2018-03-21T05:42:55.896Z,-0.70
2018-03-21T05:45:23.450Z,-0.60
2018-03-21T05:47:51.060Z,-0.60
2018-03-21T05:50:19.634Z,-0.70
2018-03-21T05:52:47.199Z,-0.70
2018-03-21T05:55:15.550Z,-0.60
2018-03-21T05:57:43.548Z,-0.60
2018-03-21T06:00:12.269Z,-0.60
2018-03-21T06:02:39.851Z,-0.70
2018-03-21T06:05:07.827Z,-0.70
2018-03-21T06:07:35.412Z,-0.70
2018-03-21T06:10:02.995Z,-0.50
2018-03-21T06:12:32.037Z,-0.40
2018-03-21T06:14:59.638Z,-0.40
2018-03-21T06:17:27.994Z,-0.50
2018-03-21T06:19:55.586Z,-0.60
2018-03-21T06:22:23.962Z,-0.50
2018-03-21T06:24:52.339Z,-0.60
2018-03-21T06:27:19.965Z,-0.60
2018-03-21T06:29:47.577Z,-0.60
2018-03-21T06:32:15.166Z,-0.60
2018-03-21T06:34:42.792Z,-0.60
2018-03-21T06:37:10.390Z,-0.60
2018-03-21T06:39:38.024Z,-0.50
2018-03-21T06:42:05.615Z,-0.30
2018-03-21T06:44:34.783Z,0.00
2018-03-21T06:47:03.105Z,0.00
2018-03-21T06:49:30.673Z,-0.10
2018-03-21T06:51:59.092Z,0.10
2018-03-21T06:54:26.682Z,0.00
2018-03-21T06:56:54.572Z,0.00
2018-03-21T06:59:22.920Z,0.00
2018-03-21T07:01:50.482Z,-0.10
2018-03-21T07:04:18.510Z,0.00
2018-03-21T07:06:46.091Z,0.00
2018-03-21T07:09:13.748Z,0.10
2018-03-21T07:11:41.643Z,0.10
2018-03-21T07:14:21.694Z,0.20
2018-03-21T07:16:49.343Z,0.20
2018-03-21T07:19:16.940Z,0.20
2018-03-21T07:21:45.286Z,0.40
2018-03-21T07:24:12.896Z,0.30
2018-03-21T07:26:41.398Z,0.70
2018-03-21T07:29:08.993Z,0.60
2018-03-21T07:31:36.621Z,0.60
2018-03-21T07:34:04.234Z,0.60
2018-03-21T07:36:31.799Z,0.50
2018-03-21T07:39:00.218Z,0.50
2018-03-21T07:41:28.531Z,0.50
2018-03-21T07:43:56.143Z,0.50
2018-03-21T07:46:23.823Z,0.60
2018-03-21T07:48:51.456Z,0.80
2018-03-21T07:51:19.100Z,1.10
2018-03-21T07:53:47.494Z,1.00
2018-03-21T07:56:15.069Z,1.00
2018-03-21T07:58:42.653Z,1.20
2018-03-21T08:01:10.629Z,1.40
2018-03-21T08:03:38.201Z,1.40
2018-03-21T08:06:05.847Z,1.40
2018-03-21T08:08:33.823Z,1.30
2018-03-21T08:11:01.393Z,1.20
2018-03-21T08:13:28.955Z,1.20
2018-03-21T08:15:56.558Z,1.40
2018-03-21T08:18:24.144Z,1.20
2018-03-21T08:20:51.740Z,1.20
2018-03-21T08:23:20.125Z,1.30
2018-03-21T08:25:48.472Z,1.30
2018-03-21T08:28:16.005Z,1.20
2018-03-21T08:30:43.604Z,1.20
2018-03-21T08:33:11.279Z,1.30
2018-03-21T08:35:39.640Z,1.70
2018-03-21T08:38:07.286Z,1.70
2018-03-21T08:40:35.624Z,1.80
2018-03-21T08:43:03.193Z,1.70
2018-03-21T08:45:30.796Z,2.00
2018-03-21T08:47:58.375Z,2.10
2018-03-21T08:50:26.740Z,2.20
2018-03-21T08:52:55.057Z,2.40
2018-03-21T08:55:22.666Z,2.30
2018-03-21T08:57:50.270Z,2.20
2018-03-21T09:00:18.883Z,2.10
2018-03-21T09:02:46.440Z,2.20
2018-03-21T09:05:14.046Z,2.40
2018-03-21T09:07:42.409Z,2.60
2018-03-21T09:10:10.003Z,2.50
2018-03-21T09:12:38.547Z,2.50
2018-03-21T09:15:06.880Z,2.60
2018-03-21T09:17:34.443Z,2.50
2018-03-21T09:20:02.052Z,2.60
2018-03-21T09:22:30.487Z,2.50
2018-03-21T09:24:58.130Z,2.50
2018-03-21T09:27:26.485Z,2.20
2018-03-21T09:29:54.101Z,2.10
2018-03-21T09:32:21.672Z,2.50
2018-03-21T09:34:50.751Z,2.40
2018-03-21T09:37:18.614Z,2.40
2018-03-21T09:39:46.177Z,2.40
2018-03-21T09:42:13.743Z,2.80
2018-03-21T09:44:41.429Z,2.90
2018-03-21T09:47:09.765Z,2.60
2018-03-21T09:49:37.364Z,2.50
2018-03-21T09:52:05.748Z,2.80
2018-03-21T09:54:39.735Z,3.00
2018-03-21T09:57:07.436Z,2.90
2018-03-21T09:59:35.025Z,3.20
2018-03-21T10:02:02.601Z,3.10
2018-03-21T10:04:30.212Z,3.20
2018-03-21T10:06:57.852Z,3.40
2018-03-21T10:09:26.198Z,3.70
2018-03-21T10:11:53.802Z,3.70
2018-03-21T10:14:22.181Z,3.80
2018-03-21T10:16:50.496Z,3.70
2018-03-21T10:19:18.068Z,3.70
2018-03-21T10:21:45.807Z,3.80
2018-03-21T10:24:13.385Z,4.00
2018-03-21T10:26:40.991Z,4.20
2018-03-21T10:29:09.342Z,3.90
2018-03-21T10:31:36.979Z,3.80
2018-03-21T10:34:04.551Z,4.00
2018-03-21T10:36:32.184Z,4.10
2018-03-21T10:39:00.036Z,4.20
2018-03-21T10:41:27.626Z,4.70
2018-03-21T10:43:55.202Z,4.70
2018-03-21T10:46:22.834Z,4.70
2018-03-21T10:48:50.436Z,4.10
2018-03-21T10:51:18.787Z,4.30
2018-03-21T10:53:46.405Z,4.30
2018-03-21T10:56:14.008Z,5.00
2018-03-21T10:58:41.565Z,5.20
2018-03-21T11:01:28.894Z,5.50
2018-03-21T11:03:57.238Z,6.00
2018-03-21T11:06:27.663Z,6.00
2018-03-21T11:08:55.280Z,5.90
2018-03-21T11:11:23.917Z,5.90
2018-03-21T11:13:51.566Z,5.90
2018-03-21T11:16:19.135Z,6.10
2018-03-21T11:18:46.745Z,5.70
2018-03-21T11:21:15.539Z,5.70
2018-03-21T11:23:43.912Z,5.40
2018-03-21T11:26:12.251Z,5.60
2018-03-21T11:28:39.876Z,5.50
2018-03-21T11:31:07.430Z,5.70
2018-03-21T11:33:35.005Z,5.50
2018-03-21T11:36:02.630Z,5.60
2018-03-21T11:38:30.229Z,5.90
2018-03-21T11:40:58.096Z,6.20
2018-03-21T11:43:25.691Z,6.20
2018-03-21T11:45:54.013Z,6.40
2018-03-21T11:48:21.580Z,6.30
2018-03-21T11:50:49.465Z,6.90
2018-03-21T11:53:17.034Z,7.20
2018-03-21T11:55:44.630Z,7.20
2018-03-21T11:58:13.280Z,7.00
2018-03-21T12:00:40.856Z,7.00
2018-03-21T12:03:08.428Z,7.20
2018-03-21T12:05:36.807Z,7.40
2018-03-21T12:08:05.137Z,7.20
2018-03-21T12:10:32.781Z,7.10
2018-03-21T12:13:00.379Z,7.20
2018-03-21T12:15:27.939Z,7.30
2018-03-21T12:17:55.509Z,7.40
2018-03-21T12:20:23.100Z,7.60
2018-03-21T12:22:50.694Z,7.60
2018-03-21T12:25:18.290Z,7.60
2018-03-21T12:27:45.862Z,7.50
2018-03-21T12:30:14.227Z,7.50
2018-03-21T12:32:42.178Z,7.40
2018-03-21T12:35:09.742Z,8.20
2018-03-21T12:37:38.175Z,8.60
2018-03-21T12:40:05.790Z,8.50
2018-03-21T12:42:33.379Z,8.80
2018-03-21T12:45:01.115Z,8.10
2018-03-21T12:47:29.480Z,7.60
2018-03-21T12:49:58.582Z,7.40
2018-03-21T12:52:26.153Z,7.40
2018-03-21T12:54:54.524Z,7.80
2018-03-21T12:57:22.851Z,7.60
2018-03-21T12:59:50.527Z,7.50
2018-03-21T13:02:19.906Z,7.60
2018-03-21T13:04:47.470Z,7.60
2018-03-21T13:07:15.036Z,7.80
2018-03-21T13:09:42.805Z,7.90
2018-03-21T13:12:10.361Z,8.00
2018-03-21T13:14:37.929Z,7.70
2018-03-21T13:17:05.897Z,7.60
2018-03-21T13:19:33.472Z,7.60
2018-03-21T13:22:01.026Z,7.80
2018-03-21T13:24:28.623Z,7.80
2018-03-21T13:26:57.054Z,7.30
2018-03-21T13:29:24.631Z,7.30
2018-03-21T13:31:53.029Z,7.30
2018-03-21T13:34:21.353Z,7.30
2018-03-21T13:36:49.346Z,7.20
2018-03-21T13:39:16.909Z,7.30
2018-03-21T13:41:45.244Z,7.00
2018-03-21T13:44:12.847Z,6.90
2018-03-21T13:46:40.430Z,6.90
2018-03-21T13:49:08.811Z,6.90
2018-03-21T13:51:37.169Z,6.70
2018-03-21T13:54:04.825Z,6.70
2018-03-21T13:56:32.406Z,6.70
2018-03-21T13:59:01.052Z,6.70
2018-03-21T14:01:28.628Z,6.60
2018-03-21T14:03:57.698Z,6.80
2018-03-21T14:06:25.334Z,6.80
2018-03-21T14:08:52.949Z,7.00
2018-03-21T14:11:21.375Z,7.40
2018-03-21T14:13:49.035Z,7.30
2018-03-21T14:16:16.639Z,7.60
2018-03-21T14:18:44.238Z,7.50
2018-03-21T14:21:12.383Z,7.60
2018-03-21T14:23:40.765Z,7.70
2018-03-21T14:26:09.135Z,7.80
2018-03-21T14:28:37.593Z,7.90
2018-03-21T14:31:05.220Z,7.90
2018-03-21T14:33:32.849Z,8.00
2018-03-21T14:36:01.529Z,9.20
2018-03-21T14:38:29.896Z,11.00
2018-03-21T14:40:58.293Z,12.60
2018-03-21T14:43:25.960Z,12.50
2018-03-21T14:45:53.783Z,12.30
2018-03-21T14:48:23.652Z,11.70
2018-03-21T14:50:51.295Z,11.70
2018-03-21T14:53:18.925Z,12.70
2018-03-21T14:55:46.562Z,12.30
2018-03-21T14:58:14.672Z,12.50
2018-03-21T15:00:43.057Z,10.00
2018-03-21T15:03:11.471Z,9.10
2018-03-21T15:05:39.078Z,9.00
2018-03-21T15:08:07.461Z,8.20
2018-03-21T15:10:35.884Z,8.00
2018-03-21T15:13:03.487Z,8.00
2018-03-21T15:15:31.094Z,7.80
2018-03-21T15:17:59.148Z,7.70
2018-03-21T15:20:26.768Z,7.40
2018-03-21T15:22:54.359Z,7.40
2018-03-21T15:25:22.788Z,7.40
2018-03-21T15:27:50.647Z,7.40
2018-03-21T15:30:18.302Z,7.40
2018-03-21T15:32:46.227Z,7.40
2018-03-21T15:35:14.613Z,7.40
2018-03-21T15:37:42.726Z,7.40
2018-03-21T15:40:10.427Z,7.30
2018-03-21T15:42:38.817Z,7.30
2018-03-21T15:45:07.580Z,7.30
2018-03-21T15:47:35.510Z,7.20
2018-03-21T15:50:03.140Z,7.30
2018-03-21T15:52:31.535Z,7.20
2018-03-21T15:55:00.066Z,7.10
2018-03-21T15:57:29.549Z,7.00
2018-03-21T15:59:57.363Z,6.90
2018-03-21T16:02:26.677Z,6.70
2018-03-21T16:04:54.301Z,6.60
2018-03-21T16:07:22.728Z,6.70
2018-03-21T16:09:50.370Z,6.60
2018-03-21T16:12:18.029Z,6.80
2018-03-21T16:14:46.576Z,6.80
2018-03-21T16:17:14.536Z,6.70
2018-03-21T16:19:42.174Z,6.80
2018-03-21T16:22:10.636Z,6.90
2018-03-21T16:24:38.316Z,7.00
2018-03-21T16:27:06.285Z,7.20
2018-03-21T16:29:33.955Z,7.70
2018-03-21T16:32:02.433Z,9.20
2018-03-21T16:34:32.275Z,9.70
2018-03-21T16:37:01.702Z,9.20
2018-03-21T16:39:29.948Z,9.10
2018-03-21T16:41:58.608Z,9.00
2018-03-21T16:44:28.915Z,8.90
2018-03-21T16:46:58.400Z,9.20
2018-03-21T16:49:26.050Z,9.20
2018-03-21T16:51:55.226Z,8.90
2018-03-21T16:54:24.120Z,8.80
2018-03-21T16:56:52.478Z,8.50
2018-03-21T16:59:22.133Z,8.00
2018-03-21T17:01:50.650Z,8.00
2018-03-21T17:04:19.203Z,7.80
2018-03-21T17:06:48.492Z,6.90
2018-03-21T17:09:16.552Z,6.90
2018-03-21T17:11:45.228Z,6.70
2018-03-21T17:14:14.237Z,6.40
2018-03-21T17:16:42.283Z,6.40
2018-03-21T17:19:10.641Z,6.30
2018-03-21T17:21:39.084Z,6.00
2018-03-21T17:24:08.034Z,6.00
2018-03-21T17:26:35.703Z,6.00
2018-03-21T17:29:03.376Z,5.80
2018-03-21T17:31:31.139Z,5.80
2018-03-21T17:33:59.670Z,5.70
2018-03-21T17:36:28.074Z,5.50
2018-03-21T17:38:55.764Z,5.40
2018-03-21T17:41:24.219Z,5.40
2018-03-21T17:43:51.945Z,5.30
2018-03-21T17:46:19.939Z,5.20
2018-03-21T17:48:47.666Z,5.10
2018-03-21T17:51:15.260Z,5.10
2018-03-21T17:53:43.630Z,4.90
2018-03-21T17:56:11.970Z,4.90
2018-03-21T17:58:39.619Z,4.80
2018-03-21T18:01:07.314Z,4.90
2018-03-21T18:03:34.881Z,4.80
2018-03-21T18:06:02.442Z,4.70
2018-03-21T18:08:30.139Z,4.50
2018-03-21T18:10:57.706Z,4.50
2018-03-21T18:13:25.274Z,4.50
2018-03-21T18:15:52.884Z,4.40
2018-03-21T18:18:21.263Z,4.30
2018-03-21T18:20:49.582Z,4.10
2018-03-21T18:23:17.177Z,4.00
2018-03-21T18:25:44.741Z,4.00
2018-03-21T18:28:12.350Z,4.10
2018-03-21T18:30:39.910Z,4.10
2018-03-21T18:33:07.491Z,4.00
2018-03-21T18:35:35.101Z,3.90
2018-03-21T18:38:03.501Z,3.80
2018-03-21T18:40:31.086Z,3.70
2018-03-21T18:42:58.935Z,3.80
2018-03-21T18:45:26.500Z,3.90
2018-03-21T18:47:54.060Z,3.80
2018-03-21T18:50:21.642Z,3.80
2018-03-21T18:52:49.206Z,3.60
2018-03-21T18:55:16.778Z,3.60
2018-03-21T18:57:44.371Z,3.50
2018-03-21T19:00:11.923Z,3.60
2018-03-21T19:02:40.604Z,3.30
2018-03-21T19:05:08.204Z,3.30
2018-03-21T19:07:35.785Z,3.20
2018-03-21T19:10:03.435Z,3.10
2018-03-21T19:12:31.070Z,3.10
2018-03-21T19:14:58.666Z,3.10
2018-03-21T19:17:26.531Z,3.10
2018-03-21T19:19:54.120Z,3.10
2018-03-21T19:22:22.464Z,3.10
2018-03-21T19:24:50.099Z,3.10
2018-03-21T19:27:17.670Z,3.20
2018-03-21T19:29:45.206Z,3.20
2018-03-21T19:32:12.826Z,3.20
2018-03-21T19:34:40.380Z,3.00
2018-03-21T19:37:07.974Z,2.90
2018-03-21T19:39:35.876Z,2.90
2018-03-21T19:42:04.287Z,2.80
2018-03-21T19:44:31.854Z,2.80
2018-03-21T19:47:00.232Z,2.70
2018-03-21T19:49:28.617Z,2.70
2018-03-21T19:51:56.957Z,2.70
2018-03-21T19:54:24.552Z,2.70
2018-03-21T19:56:52.892Z,2.70
2018-03-21T19:59:20.511Z,2.70
2018-03-21T20:01:48.115Z,2.70
2018-03-21T20:04:15.681Z,2.70
2018-03-21T20:06:43.289Z,2.70
2018-03-21T20:09:11.153Z,2.50
2018-03-21T20:11:38.856Z,2.50
2018-03-21T20:14:06.420Z,2.50
2018-03-21T20:16:34.033Z,2.50
2018-03-21T20:19:01.632Z,2.50
2018-03-21T20:21:29.193Z,2.50
2018-03-21T20:23:56.784Z,2.50
2018-03-21T20:26:25.253Z,2.50
2018-03-21T20:28:52.860Z,2.40
2018-03-21T20:31:20.414Z,2.60
2018-03-21T20:33:48.014Z,2.60
2018-03-21T20:36:15.594Z,2.60
2018-03-21T20:38:43.876Z,2.60
2018-03-21T20:41:12.240Z,2.60
2018-03-21T20:43:39.794Z,2.50
2018-03-21T20:46:07.369Z,2.60
2018-03-21T20:48:35.731Z,2.70
2018-03-21T20:51:03.494Z,2.60
2018-03-21T20:53:31.104Z,2.80
2018-03-21T20:55:58.730Z,2.70
2018-03-21T20:58:26.430Z,2.80
2018-03-21T21:00:54.005Z,2.80
2018-03-21T21:03:21.595Z,2.90
2018-03-21T21:05:49.183Z,2.90
2018-03-21T21:08:17.525Z,2.80
2018-03-21T21:10:45.101Z,2.70
2018-03-21T21:13:13.474Z,2.60
2018-03-21T21:15:41.100Z,2.60
2018-03-21T21:18:08.722Z,2.70
2018-03-21T21:20:36.288Z,2.70
2018-03-21T21:23:03.855Z,2.70
2018-03-21T21:25:31.469Z,2.70
2018-03-21T21:27:59.048Z,2.70
2018-03-21T21:30:27.385Z,2.60
2018-03-21T21:32:55.083Z,2.60
2018-03-21T21:35:23.468Z,2.70
2018-03-21T21:37:51.845Z,2.70
2018-03-21T21:40:20.210Z,2.70
2018-03-21T21:42:48.578Z,2.70
2018-03-21T21:45:16.163Z,2.60
2018-03-21T21:47:44.524Z,2.60
2018-03-21T21:50:12.087Z,2.60
2018-03-21T21:52:40.435Z,2.70
2018-03-21T21:55:08.047Z,2.70
2018-03-21T21:57:35.632Z,2.70
2018-03-21T22:00:03.217Z,2.70
2018-03-21T22:02:30.833Z,2.70
2018-03-21T22:04:58.466Z,2.70
2018-03-21T22:07:26.845Z,2.70
2018-03-21T22:09:55.394Z,2.80
2018-03-21T22:12:24.024Z,2.70
2018-03-21T22:14:51.586Z,2.70
2018-03-21T22:17:19.264Z,2.70
2018-03-21T22:19:47.116Z,2.80
2018-03-21T22:22:14.674Z,2.80
2018-03-21T22:24:42.267Z,2.70
2018-03-21T22:27:10.144Z,2.80
2018-03-21T22:29:37.707Z,2.80
2018-03-21T22:32:05.412Z,2.80
2018-03-21T22:34:34.024Z,2.90
2018-03-21T22:37:01.605Z,2.90
2018-03-21T22:39:29.226Z,3.00
2018-03-21T22:41:56.820Z,3.00
2018-03-21T22:44:24.397Z,3.00
2018-03-21T22:46:51.961Z,3.00
2018-03-21T22:49:19.559Z,3.10
2018-03-21T22:51:47.130Z,3.10
2018-03-21T22:54:14.719Z,3.10
2018-03-21T22:56:42.585Z,3.20
2018-03-21T22:59:10.154Z,3.20
2018-03-21T23:01:37.715Z,3.20
2018-03-21T23:04:05.314Z,3.20
2018-03-21T23:06:32.883Z,3.20
2018-03-21T23:09:00.455Z,3.20
2018-03-21T23:11:28.046Z,3.20
2018-03-21T23:13:55.634Z,3.20
2018-03-21T23:16:23.991Z,3.20
2018-03-21T23:18:51.577Z,3.20
2018-03-21T23:21:19.932Z,3.20
2018-03-21T23:23:47.474Z,3.20
2018-03-21T23:26:15.118Z,3.20
2018-03-21T23:28:42.688Z,3.20
2018-03-21T23:31:10.261Z,3.20
2018-03-21T23:33:37.850Z,3.20
2018-03-21T23:36:06.190Z,3.30
2018-03-21T23:38:33.772Z,3.20
2018-03-21T23:41:02.403Z,3.20
2018-03-21T23:43:30.028Z,3.20
2018-03-21T23:45:58.363Z,3.20
2018-03-21T23:48:26.017Z,3.20
2018-03-21T23:50:53.619Z,3.20
2018-03-21T23:53:21.950Z,3.20
2018-03-21T23:55:49.544Z,3.10
2018-03-21T23:58:17.105Z,3.20
